Hlavní strana
METAR-TAF:

METAR-TAF

Letiště :

Okmulgee, Oklahoma, Spojené státy americké

zeměpisná šířka: 35-40-05N, zeměpisná délka: 095-56-55W, výška: 220 m

Aktuální stav počasí

Zpráva byla vytvořena před 28 minutami, v 09:35 UTC
Jižní vítr 10 kt s nárazy do 18 kt
Teplota 14°C
Vlhkost vzduchu 100%
Tlak 1001 hPa
Viditelnost: 16.1 km
Polojasno ve výšce 1100 ft
Oblačno až skoro zataženo ve výšce 1900 ft
Zataženo ve výšce 4100 ft

METAR: KOKM 240935Z AUTO 17010G18KT 10SM SCT011 BKN019 OVC041 14/14 A2957 RMK AO2 T01360136

Čas: 04:03 (10:03 UTC)


TAF: chybějící

Stav a předpovědi počasí z více než 4 000 letišť (zprávy METAR a TAF).

Červené a žluté tečky na mapě představují dostupné meteorologické stanice.

Když kurzor umístíte na tečku, zobrazí se název stanice.

Pak kliknutím zobrazíte stav a předpověď počasí.

Chcete-li změnit mapu, kliknutím na zelené tlačítko se znaménkem +mapu přiblížíte, kliknutím na zelené tlačítko se znaménkem – mapu oddálíte a kliknutím na zelené šipky přejdete na sousední mapy.


METAR-TAF: